createdAt,value
2019-01-24T00:01:45.911Z,87.45
2019-01-24T00:04:16.743Z,87.28
2019-01-24T00:06:41.076Z,87.36
2019-01-24T00:09:07.914Z,87.38
2019-01-24T00:11:34.790Z,87.52
2019-01-24T00:14:01.864Z,87.62
2019-01-24T00:16:28.507Z,87.46
2019-01-24T00:18:55.268Z,87.28
2019-01-24T00:21:21.902Z,87.07
2019-01-24T00:23:48.490Z,86.76
2019-01-24T00:26:15.096Z,86.74
2019-01-24T00:28:42.287Z,87.10
2019-01-24T00:31:09.491Z,87.16
2019-01-24T00:33:36.132Z,87.35
2019-01-24T00:36:02.953Z,87.42
2019-01-24T00:38:29.570Z,87.55
2019-01-24T00:40:56.246Z,87.55
2019-01-24T00:43:22.983Z,87.57
2019-01-24T00:45:49.742Z,87.64
2019-01-24T00:48:16.272Z,87.66
2019-01-24T00:50:43.592Z,87.76
2019-01-24T00:53:10.352Z,87.72
2019-01-24T00:55:37.205Z,87.78
2019-01-24T00:58:04.224Z,87.77
2019-01-24T01:00:30.872Z,87.80
2019-01-24T01:02:57.411Z,87.59
2019-01-24T01:05:24.059Z,87.73
2019-01-24T01:07:51.076Z,87.70
2019-01-24T01:10:17.789Z,87.64
2019-01-24T01:12:44.457Z,87.55
2019-01-24T01:15:16.165Z,87.73
2019-01-24T01:17:43.359Z,87.67
2019-01-24T01:20:15.318Z,87.58
2019-01-24T01:22:42.121Z,87.75
2019-01-24T01:25:10.019Z,87.62
2019-01-24T01:27:36.704Z,87.65
2019-01-24T01:30:06.006Z,87.65
2019-01-24T01:32:32.631Z,87.60
2019-01-24T01:34:59.160Z,87.44
2019-01-24T01:37:25.833Z,87.59
2019-01-24T01:39:52.379Z,87.64
2019-01-24T01:42:18.924Z,87.65
2019-01-24T01:44:46.120Z,87.67
2019-01-24T01:47:12.648Z,87.69
2019-01-24T01:49:40.092Z,87.57
2019-01-24T01:52:06.995Z,87.80
2019-01-24T01:54:33.569Z,87.81
2019-01-24T01:57:00.315Z,87.63
2019-01-24T01:59:26.923Z,87.63
2019-01-24T02:01:53.502Z,87.63
2019-01-24T02:04:20.072Z,87.48
2019-01-24T02:06:46.981Z,87.27
2019-01-24T02:09:13.570Z,87.19
2019-01-24T02:11:40.196Z,87.24
2019-01-24T02:14:06.837Z,87.33
2019-01-24T02:16:33.845Z,87.48
2019-01-24T02:19:00.574Z,87.37
2019-01-24T02:21:28.483Z,87.25
2019-01-24T02:23:54.997Z,87.32
2019-01-24T02:26:21.499Z,87.04
2019-01-24T02:28:48.017Z,86.97
2019-01-24T02:31:14.615Z,86.86
2019-01-24T02:33:41.144Z,86.84
2019-01-24T02:36:07.862Z,86.86
2019-01-24T02:38:34.678Z,86.98
2019-01-24T02:41:01.330Z,86.86
2019-01-24T02:43:27.856Z,86.74
2019-01-24T02:45:54.448Z,86.73
2019-01-24T02:48:20.987Z,86.67
2019-01-24T02:50:47.919Z,86.51
2019-01-24T02:53:14.448Z,86.36
2019-01-24T02:55:41.056Z,86.20
2019-01-24T02:58:07.625Z,86.19
2019-01-24T03:00:34.175Z,86.08
2019-01-24T03:03:00.836Z,86.09
2019-01-24T03:05:27.420Z,86.06
2019-01-24T03:07:53.947Z,86.27
2019-01-24T03:10:20.639Z,86.56
2019-01-24T03:12:47.807Z,86.63
2019-01-24T03:15:19.282Z,86.66
2019-01-24T03:17:46.184Z,86.77
2019-01-24T03:20:13.123Z,86.75
2019-01-24T03:22:39.707Z,86.72
2019-01-24T03:25:06.824Z,86.82
2019-01-24T03:27:33.597Z,86.82
2019-01-24T03:30:00.445Z,86.76
2019-01-24T03:32:27.288Z,86.83
2019-01-24T03:34:53.931Z,87.02
2019-01-24T03:37:20.538Z,87.02
2019-01-24T03:39:47.118Z,87.18
2019-01-24T03:42:13.629Z,87.20
2019-01-24T03:44:40.350Z,87.38
2019-01-24T03:47:06.937Z,87.46
2019-01-24T03:49:33.469Z,87.67
2019-01-24T03:51:59.965Z,87.79
2019-01-24T03:54:26.475Z,87.73
2019-01-24T03:56:53.552Z,87.78
2019-01-24T03:59:20.268Z,87.75
2019-01-24T04:01:47.058Z,87.75
2019-01-24T04:04:14.075Z,87.51
2019-01-24T04:06:41.015Z,87.47
2019-01-24T04:09:07.727Z,87.81
2019-01-24T04:11:34.213Z,87.85
2019-01-24T04:14:00.745Z,87.82
2019-01-24T04:16:27.660Z,87.93
2019-01-24T04:18:54.773Z,87.99
2019-01-24T04:21:21.246Z,87.97
2019-01-24T04:23:47.849Z,87.93
2019-01-24T04:26:14.982Z,87.84
2019-01-24T04:28:41.469Z,87.72
2019-01-24T04:31:07.972Z,87.60
2019-01-24T04:33:34.509Z,87.46
2019-01-24T04:36:01.064Z,87.56
2019-01-24T04:38:27.822Z,87.54
2019-01-24T04:40:54.497Z,87.47
2019-01-24T04:43:21.592Z,87.55
2019-01-24T04:45:48.273Z,87.44
2019-01-24T04:48:16.062Z,87.41
2019-01-24T04:50:42.589Z,87.52
2019-01-24T04:53:09.630Z,87.50
2019-01-24T04:55:37.453Z,87.42
2019-01-24T04:58:04.012Z,87.45
2019-01-24T05:00:30.800Z,87.33
2019-01-24T05:02:57.736Z,87.39
2019-01-24T05:05:28.039Z,87.33
2019-01-24T05:07:52.713Z,87.34
2019-01-24T05:10:19.810Z,87.45
2019-01-24T05:12:46.308Z,87.63
2019-01-24T05:15:14.023Z,87.60
2019-01-24T05:17:40.551Z,87.46
2019-01-24T05:20:08.931Z,87.66
2019-01-24T05:22:35.466Z,87.65
2019-01-24T05:25:02.263Z,87.69
2019-01-24T05:27:30.866Z,87.70
2019-01-24T05:29:57.405Z,87.66
2019-01-24T05:32:23.929Z,87.85
2019-01-24T05:34:50.509Z,87.72
2019-01-24T05:37:19.505Z,87.46
2019-01-24T05:39:46.172Z,87.45
2019-01-24T05:42:13.767Z,87.41
2019-01-24T05:44:40.500Z,87.46
2019-01-24T05:47:07.038Z,87.44
2019-01-24T05:49:33.866Z,87.53
2019-01-24T05:52:00.460Z,87.60
2019-01-24T05:54:26.962Z,87.73
2019-01-24T05:56:55.578Z,87.61
2019-01-24T05:59:22.234Z,87.66
2019-01-24T06:01:49.653Z,87.65
2019-01-24T06:04:16.290Z,87.65
2019-01-24T06:06:45.923Z,87.59
2019-01-24T06:09:12.421Z,87.51
2019-01-24T06:11:39.335Z,87.44
2019-01-24T06:14:06.011Z,87.32
2019-01-24T06:16:33.142Z,87.40
2019-01-24T06:18:59.919Z,87.45
2019-01-24T06:21:26.526Z,87.57
2019-01-24T06:23:53.058Z,87.61
2019-01-24T06:26:20.005Z,87.58
2019-01-24T06:28:46.793Z,87.67
2019-01-24T06:31:13.342Z,87.71
2019-01-24T06:33:39.893Z,87.67
2019-01-24T06:36:06.433Z,87.78
2019-01-24T06:38:33.292Z,87.80
2019-01-24T06:40:59.845Z,87.59
2019-01-24T06:43:26.420Z,87.67
2019-01-24T06:45:55.058Z,87.70
2019-01-24T06:48:21.595Z,87.62
2019-01-24T06:50:54.520Z,87.59
2019-01-24T06:53:21.286Z,87.65
2019-01-24T06:55:48.398Z,87.82
2019-01-24T06:58:14.982Z,87.81
2019-01-24T07:00:41.506Z,87.76
2019-01-24T07:03:08.019Z,87.72
2019-01-24T07:05:35.237Z,87.82
2019-01-24T07:08:01.812Z,87.86
2019-01-24T07:10:28.622Z,87.95
2019-01-24T07:12:55.198Z,87.98
2019-01-24T07:15:22.460Z,87.94
2019-01-24T07:17:49.128Z,88.06
2019-01-24T07:20:16.877Z,88.04
2019-01-24T07:22:43.526Z,88.11
2019-01-24T07:25:13.500Z,88.09
2019-01-24T07:27:40.646Z,88.16
2019-01-24T07:30:09.602Z,88.34
2019-01-24T07:32:36.547Z,88.41
2019-01-24T07:35:04.815Z,88.36
2019-01-24T07:37:31.555Z,88.38
2019-01-24T07:39:58.113Z,88.33
2019-01-24T07:42:29.307Z,88.47
2019-01-24T07:44:55.937Z,88.56
2019-01-24T07:47:22.950Z,88.44
2019-01-24T07:49:49.449Z,88.26
2019-01-24T07:52:17.457Z,88.20
2019-01-24T07:54:44.345Z,88.19
2019-01-24T07:57:10.900Z,88.19
2019-01-24T07:59:37.957Z,88.13
2019-01-24T08:02:04.610Z,88.14
2019-01-24T08:04:31.275Z,88.17
2019-01-24T08:06:58.151Z,88.15
2019-01-24T08:09:24.792Z,88.30
2019-01-24T08:11:51.479Z,88.24
2019-01-24T08:14:18.379Z,88.04
2019-01-24T08:16:45.446Z,88.02
2019-01-24T08:19:12.179Z,87.99
2019-01-24T08:21:38.803Z,87.74
2019-01-24T08:24:05.433Z,87.65
2019-01-24T08:26:32.251Z,87.67
2019-01-24T08:28:59.043Z,87.56
2019-01-24T08:31:27.533Z,87.46
2019-01-24T08:33:54.263Z,87.40
2019-01-24T08:36:20.982Z,87.33
2019-01-24T08:38:50.335Z,86.88
2019-01-24T08:41:17.210Z,86.77
2019-01-24T08:43:43.893Z,86.67
2019-01-24T08:46:20.303Z,86.51
2019-01-24T08:48:47.397Z,86.38
2019-01-24T08:51:13.935Z,86.10
2019-01-24T08:53:40.482Z,86.08
2019-01-24T08:56:07.482Z,85.26
2019-01-24T08:58:34.268Z,84.71
2019-01-24T09:01:00.774Z,84.08
2019-01-24T09:03:27.787Z,83.86
2019-01-24T09:05:54.401Z,83.83
2019-01-24T09:08:20.928Z,83.24
2019-01-24T09:10:47.627Z,83.07
2019-01-24T09:13:14.161Z,82.23
2019-01-24T09:15:40.636Z,82.54
2019-01-24T09:18:07.871Z,82.50
2019-01-24T09:20:34.841Z,81.42
2019-01-24T09:23:01.871Z,81.40
2019-01-24T09:25:28.775Z,80.68
2019-01-24T09:27:55.459Z,80.83
2019-01-24T09:30:23.261Z,80.33
2019-01-24T09:32:49.826Z,79.61
2019-01-24T09:35:16.502Z,79.76
2019-01-24T09:37:43.056Z,79.71
2019-01-24T09:40:10.824Z,79.59
2019-01-24T09:42:39.448Z,79.05
2019-01-24T09:45:08.919Z,79.48
2019-01-24T09:47:35.450Z,79.37
2019-01-24T09:50:06.305Z,79.30
2019-01-24T09:52:33.190Z,79.47
2019-01-24T09:54:59.832Z,79.31
2019-01-24T09:57:26.777Z,79.41
2019-01-24T09:59:53.501Z,79.58
2019-01-24T10:02:20.339Z,79.17
2019-01-24T10:04:47.069Z,79.04
2019-01-24T10:07:13.654Z,79.36
2019-01-24T10:09:40.535Z,78.73
2019-01-24T10:12:07.574Z,79.18
2019-01-24T10:14:34.462Z,79.12
2019-01-24T10:17:00.955Z,79.34
2019-01-24T10:19:27.662Z,79.06
2019-01-24T10:21:54.201Z,79.39
2019-01-24T10:24:21.352Z,78.89
2019-01-24T10:26:47.930Z,79.07
2019-01-24T10:29:14.575Z,79.23
2019-01-24T10:31:41.280Z,79.47
2019-01-24T10:34:07.961Z,79.06
2019-01-24T10:36:43.113Z,78.71
2019-01-24T10:39:09.062Z,79.20
2019-01-24T10:41:35.556Z,78.14
2019-01-24T10:44:02.367Z,78.55
2019-01-24T10:46:29.251Z,78.83
2019-01-24T10:48:57.123Z,78.52
2019-01-24T10:51:27.011Z,78.16
2019-01-24T10:53:53.575Z,78.17
2019-01-24T10:56:20.394Z,77.83
2019-01-24T10:58:47.036Z,78.50
2019-01-24T11:01:13.779Z,77.45
2019-01-24T11:03:40.428Z,76.73
2019-01-24T11:06:24.936Z,77.72
2019-01-24T11:08:55.355Z,77.25
2019-01-24T11:11:22.620Z,76.37
2019-01-24T11:13:49.251Z,76.88
2019-01-24T11:16:15.739Z,76.47
2019-01-24T11:18:42.368Z,76.57
2019-01-24T11:21:09.063Z,76.44
2019-01-24T11:23:35.927Z,76.24
2019-01-24T11:26:03.686Z,77.60
2019-01-24T11:28:30.640Z,76.48
2019-01-24T11:30:57.287Z,76.29
2019-01-24T11:33:24.056Z,75.70
2019-01-24T11:35:51.082Z,75.02
2019-01-24T11:38:17.727Z,75.41
2019-01-24T11:40:48.433Z,76.19
2019-01-24T11:43:15.491Z,75.67
2019-01-24T11:45:42.961Z,75.85
2019-01-24T11:48:09.900Z,76.09
2019-01-24T11:50:36.479Z,75.52
2019-01-24T11:53:03.915Z,76.63
2019-01-24T11:55:30.538Z,76.22
2019-01-24T11:57:57.439Z,74.78
2019-01-24T12:00:32.196Z,75.73
2019-01-24T12:02:58.780Z,75.52
2019-01-24T12:05:25.547Z,75.76
2019-01-24T12:07:52.238Z,75.86
2019-01-24T12:10:20.553Z,76.64
2019-01-24T12:12:47.068Z,76.08
2019-01-24T12:15:15.388Z,77.44
2019-01-24T12:17:42.245Z,77.59
2019-01-24T12:20:11.930Z,76.77
2019-01-24T12:22:38.466Z,76.61
2019-01-24T12:25:05.761Z,77.66
2019-01-24T12:27:32.518Z,77.24
2019-01-24T12:29:59.247Z,77.21
2019-01-24T12:32:26.359Z,77.32
2019-01-24T12:34:52.878Z,77.10
2019-01-24T12:37:19.474Z,76.81
2019-01-24T12:39:46.305Z,76.45
2019-01-24T12:42:12.791Z,76.44
2019-01-24T12:44:39.352Z,77.72
2019-01-24T12:47:05.868Z,77.41
2019-01-24T12:49:32.513Z,76.15
2019-01-24T12:51:58.988Z,76.40
2019-01-24T12:54:25.833Z,77.12
2019-01-24T12:56:52.682Z,76.18
2019-01-24T12:59:19.635Z,76.91
2019-01-24T13:01:46.131Z,77.64
2019-01-24T13:04:12.883Z,77.84
2019-01-24T13:06:39.682Z,77.69
2019-01-24T13:09:06.727Z,77.67
2019-01-24T13:11:35.688Z,78.45
2019-01-24T13:14:02.614Z,78.88
2019-01-24T13:16:29.252Z,79.35
2019-01-24T13:18:56.072Z,79.24
2019-01-24T13:21:22.693Z,79.49
2019-01-24T13:23:49.184Z,79.48
2019-01-24T13:26:15.981Z,79.46
2019-01-24T13:28:43.035Z,79.35
2019-01-24T13:31:10.300Z,78.73
2019-01-24T13:33:37.036Z,79.24
2019-01-24T13:36:06.596Z,79.07
2019-01-24T13:38:33.552Z,78.91
2019-01-24T13:41:00.368Z,79.39
2019-01-24T13:43:29.322Z,79.79
2019-01-24T13:45:55.864Z,80.02
2019-01-24T13:48:22.453Z,79.91
2019-01-24T13:50:49.060Z,80.54
2019-01-24T13:53:15.655Z,80.57
2019-01-24T13:55:42.524Z,80.42
2019-01-24T13:58:09.553Z,80.50
2019-01-24T14:00:38.150Z,80.23
2019-01-24T14:03:17.409Z,80.35
2019-01-24T14:05:44.013Z,80.46
2019-01-24T14:08:10.875Z,80.32
2019-01-24T14:10:37.626Z,80.34
2019-01-24T14:13:04.535Z,80.80
2019-01-24T14:15:31.554Z,81.00
2019-01-24T14:17:58.388Z,81.03
2019-01-24T14:20:24.946Z,81.45
2019-01-24T14:22:51.972Z,82.07
2019-01-24T14:25:18.618Z,81.46
2019-01-24T14:27:45.424Z,81.12
2019-01-24T14:30:15.548Z,81.22
2019-01-24T14:36:25.464Z,81.34
2019-01-24T14:38:50.421Z,81.98
2019-01-24T14:41:16.924Z,82.30
2019-01-24T14:43:43.642Z,81.94
2019-01-24T14:46:10.188Z,82.14
2019-01-24T14:48:36.826Z,82.02
2019-01-24T14:51:04.627Z,82.20
2019-01-24T14:53:31.185Z,82.25
2019-01-24T14:55:58.022Z,82.50
2019-01-24T14:58:24.669Z,82.29
2019-01-24T15:01:02.110Z,82.24
2019-01-24T15:03:29.531Z,82.57
2019-01-24T15:05:56.401Z,83.08
2019-01-24T15:08:24.286Z,83.33
2019-01-24T15:10:52.919Z,83.29
2019-01-24T15:13:19.586Z,83.29
2019-01-24T15:15:46.200Z,83.67
2019-01-24T15:18:12.896Z,83.89
2019-01-24T15:20:39.672Z,83.75
2019-01-24T15:23:07.380Z,83.92
2019-01-24T15:25:34.049Z,83.65
2019-01-24T15:28:00.617Z,83.74
2019-01-24T15:30:27.766Z,84.09
2019-01-24T15:32:54.595Z,84.17
2019-01-24T15:35:21.089Z,84.75
2019-01-24T15:37:54.080Z,84.62
2019-01-24T15:40:18.728Z,84.69
2019-01-24T15:42:45.385Z,84.81
2019-01-24T15:45:12.507Z,84.88
2019-01-24T15:47:39.146Z,85.03
2019-01-24T15:50:07.201Z,85.26
2019-01-24T15:52:34.236Z,85.21
2019-01-24T15:55:01.973Z,85.24
2019-01-24T15:57:28.905Z,85.63
2019-01-24T15:59:56.581Z,85.90
2019-01-24T16:02:23.361Z,86.03
2019-01-24T16:04:49.948Z,86.12
2019-01-24T16:07:16.800Z,86.01
2019-01-24T16:09:43.363Z,86.29
2019-01-24T16:12:09.881Z,86.49
2019-01-24T16:14:36.463Z,86.61
2019-01-24T16:17:03.424Z,86.74
2019-01-24T16:19:30.261Z,86.90
2019-01-24T16:21:56.819Z,87.15
2019-01-24T16:24:23.491Z,87.51
2019-01-24T16:26:50.126Z,87.69
2019-01-24T16:29:16.630Z,87.81
2019-01-24T16:31:43.425Z,87.75
2019-01-24T16:34:10.444Z,87.79
2019-01-24T16:36:36.970Z,87.82
2019-01-24T16:39:07.092Z,87.79
2019-01-24T16:41:33.775Z,87.86
2019-01-24T16:44:00.348Z,88.04
2019-01-24T16:46:26.960Z,87.93
2019-01-24T16:48:53.618Z,88.05
2019-01-24T16:51:21.644Z,88.29
2019-01-24T16:53:48.346Z,88.50
2019-01-24T16:56:19.478Z,88.52
2019-01-24T16:58:46.243Z,88.51
2019-01-24T17:01:22.265Z,88.54
2019-01-24T17:03:49.015Z,88.50
2019-01-24T17:06:16.026Z,88.57
2019-01-24T17:08:43.336Z,88.70
2019-01-24T17:11:10.247Z,88.68
2019-01-24T17:13:36.879Z,88.64
2019-01-24T17:16:03.919Z,88.66
2019-01-24T17:18:30.732Z,88.63
2019-01-24T17:20:57.336Z,88.69
2019-01-24T17:23:23.996Z,88.74
2019-01-24T17:25:50.608Z,88.76
2019-01-24T17:28:17.227Z,88.85
2019-01-24T17:30:44.062Z,89.16
2019-01-24T17:33:10.691Z,89.53
2019-01-24T17:35:37.208Z,89.65
2019-01-24T17:38:04.011Z,89.69
2019-01-24T17:40:30.821Z,89.59
2019-01-24T17:42:57.599Z,89.30
2019-01-24T17:45:24.647Z,89.40
2019-01-24T17:47:51.346Z,89.42
2019-01-24T17:50:18.034Z,89.46
2019-01-24T17:52:44.726Z,89.33
2019-01-24T17:55:17.142Z,89.45
2019-01-24T17:57:44.073Z,89.38
2019-01-24T18:00:15.233Z,89.34
2019-01-24T18:02:42.920Z,89.38
2019-01-24T18:05:10.236Z,89.26
2019-01-24T18:07:36.835Z,89.27
2019-01-24T18:10:14.055Z,89.03
2019-01-24T18:12:36.495Z,89.17
2019-01-24T18:15:06.501Z,89.48
2019-01-24T18:17:33.025Z,89.60
2019-01-24T18:19:59.863Z,89.64
2019-01-24T18:22:26.580Z,89.52
2019-01-24T18:24:53.120Z,89.68
2019-01-24T18:27:19.995Z,89.68
2019-01-24T18:29:46.532Z,89.77
2019-01-24T18:32:13.408Z,89.77
2019-01-24T18:34:40.086Z,89.71
2019-01-24T18:37:06.822Z,89.67
2019-01-24T18:39:33.365Z,89.70
2019-01-24T18:42:00.921Z,89.72
2019-01-24T18:44:27.682Z,89.64
2019-01-24T18:46:54.288Z,89.64
2019-01-24T18:49:21.577Z,89.70
2019-01-24T18:51:48.165Z,89.72
2019-01-24T18:54:14.771Z,89.45
2019-01-24T18:56:41.679Z,89.37
2019-01-24T18:59:08.624Z,89.38
2019-01-24T19:01:35.457Z,89.48
2019-01-24T19:04:02.017Z,89.59
2019-01-24T19:06:29.599Z,89.96
2019-01-24T19:08:56.294Z,90.07
2019-01-24T19:11:27.159Z,90.34
2019-01-24T19:13:57.045Z,90.39
2019-01-24T19:16:24.921Z,90.42
2019-01-24T19:18:53.958Z,90.58
2019-01-24T19:21:26.842Z,90.93
2019-01-24T19:23:56.789Z,91.07
2019-01-24T19:26:23.356Z,91.03
2019-01-24T19:28:50.102Z,91.12
2019-01-24T19:31:16.812Z,91.13
2019-01-24T19:33:46.308Z,91.03
2019-01-24T19:36:15.999Z,91.16
2019-01-24T19:38:45.174Z,91.06
2019-01-24T19:41:14.470Z,91.00
2019-01-24T19:43:43.752Z,91.03
2019-01-24T19:46:10.621Z,91.25
2019-01-24T19:48:40.576Z,91.41
2019-01-24T19:51:07.392Z,91.51
2019-01-24T19:53:34.966Z,91.51
2019-01-24T19:56:06.139Z,91.46
2019-01-24T19:58:37.578Z,91.43
2019-01-24T20:01:09.877Z,91.33
2019-01-24T20:03:37.152Z,91.22
2019-01-24T20:06:10.157Z,91.16
2019-01-24T20:08:36.995Z,91.17
2019-01-24T20:11:06.864Z,91.18
2019-01-24T20:13:36.845Z,91.25
2019-01-24T20:16:07.215Z,91.30
2019-01-24T20:18:37.034Z,91.28
2019-01-24T20:21:06.891Z,91.30
2019-01-24T20:23:37.013Z,91.28
2019-01-24T20:26:09.825Z,91.29
2019-01-24T20:28:37.819Z,91.35
2019-01-24T20:31:08.352Z,91.45
2019-01-24T20:33:36.385Z,91.58
2019-01-24T20:36:07.811Z,91.73
2019-01-24T20:38:37.919Z,91.83
2019-01-24T20:41:05.177Z,91.78
2019-01-24T20:43:36.858Z,91.62
2019-01-24T20:46:04.285Z,91.56
2019-01-24T20:48:34.323Z,91.47
2019-01-24T20:51:04.170Z,91.42
2019-01-24T20:53:31.559Z,91.47
2019-01-24T20:55:58.342Z,91.46
2019-01-24T20:58:33.914Z,91.46
2019-01-24T21:01:06.600Z,91.47
2019-01-24T21:03:35.485Z,91.51
2019-01-24T21:06:04.310Z,91.59
2019-01-24T21:08:34.192Z,91.63
2019-01-24T21:11:00.658Z,91.64
2019-01-24T21:13:29.667Z,91.58
2019-01-24T21:15:58.433Z,91.58
2019-01-24T21:18:25.457Z,91.64
2019-01-24T21:20:55.499Z,91.78
2019-01-24T21:23:25.243Z,91.86
2019-01-24T21:25:54.490Z,91.85
2019-01-24T21:28:24.344Z,91.79
2019-01-24T21:30:55.450Z,91.79
2019-01-24T21:33:24.703Z,91.82
2019-01-24T21:35:54.766Z,91.85
2019-01-24T21:38:21.859Z,91.90
2019-01-24T21:40:50.245Z,91.93
2019-01-24T21:43:25.530Z,91.89
2019-01-24T21:45:53.268Z,91.79
2019-01-24T21:48:20.002Z,91.69
2019-01-24T21:50:46.751Z,91.65
2019-01-24T21:53:13.413Z,91.67
2019-01-24T21:55:40.236Z,91.67
2019-01-24T21:58:07.562Z,91.68
2019-01-24T22:00:34.280Z,91.69
2019-01-24T22:03:00.987Z,91.70
2019-01-24T22:05:30.636Z,91.77
2019-01-24T22:07:57.310Z,91.82
2019-01-24T22:10:25.249Z,91.88
2019-01-24T22:12:52.218Z,91.98
2019-01-24T22:15:20.815Z,92.08
2019-01-24T22:17:49.562Z,92.10
2019-01-24T22:20:16.695Z,92.05
2019-01-24T22:22:43.711Z,92.03
2019-01-24T22:25:15.926Z,91.96
2019-01-24T22:27:42.543Z,91.87
2019-01-24T22:30:13.577Z,91.82
2019-01-24T22:32:40.121Z,91.81
2019-01-24T22:35:06.937Z,91.72
2019-01-24T22:37:33.916Z,91.76
2019-01-24T22:40:00.994Z,91.89
2019-01-24T22:42:27.801Z,92.02
2019-01-24T22:44:55.902Z,92.19
2019-01-24T22:47:22.568Z,92.35
2019-01-24T22:49:49.132Z,92.39
2019-01-24T22:52:16.062Z,92.40
2019-01-24T22:54:42.735Z,92.36
2019-01-24T22:57:09.227Z,92.13
2019-01-24T22:59:36.950Z,91.87
2019-01-24T23:02:25.938Z,91.61
2019-01-24T23:04:52.543Z,91.51
2019-01-24T23:07:19.530Z,91.39
2019-01-24T23:09:46.422Z,91.41
2019-01-24T23:12:13.063Z,91.55
2019-01-24T23:14:39.608Z,91.70
2019-01-24T23:17:06.967Z,91.82
2019-01-24T23:19:33.618Z,91.88
2019-01-24T23:22:00.231Z,91.95
2019-01-24T23:24:28.885Z,91.97
2019-01-24T23:26:55.495Z,91.91
2019-01-24T23:29:22.117Z,91.86
2019-01-24T23:31:49.825Z,91.82
2019-01-24T23:34:16.951Z,91.80
2019-01-24T23:36:43.903Z,91.80
2019-01-24T23:39:10.759Z,91.86
2019-01-24T23:41:37.523Z,91.92
2019-01-24T23:44:04.784Z,91.90
2019-01-24T23:46:31.364Z,91.89
2019-01-24T23:48:57.853Z,91.91
2019-01-24T23:51:24.514Z,91.91
2019-01-24T23:53:51.486Z,91.90
2019-01-24T23:56:18.234Z,91.84
2019-01-24T23:58:44.767Z,91.76
